Time;durP1;ratioP1;P1;durP2;ratioP2;P2;SDS_P1;SDS_P2;PMS_P1;PMS_P2;Temp;Humidity;BMP_temperature;BMP_pressure;BME280_temperature;BME280_humidity;BME280_pressure;Samples;Min_cycle;Max_cycle;Signal;HPM_P1;HPM_P2
2022/07/03 00:01:56;;;;;;;;;;;;;;;25.44;46.01;100738.09;5377870;32;34740;-71
2022/07/03 00:04:58;;;;;;;;;;;;;;;25.36;45.90;100737.94;5356089;32;35381;-77
2022/07/03 00:08:00;;;;;;;;;;;;;;;25.94;44.43;100737.72;5369856;32;34801;-77
2022/07/03 00:11:01;;;;;;;;;;;;;;;25.61;44.91;100731.06;5368858;32;35307;-71
2022/07/03 00:14:04;;;;;;;;;;;;;;;24.96;46.47;100730.09;5352662;32;34819;-71
2022/07/03 00:17:05;;;;;;;;;;;;;;;25.35;45.46;100725.50;5344845;32;34277;-71
2022/07/03 00:20:08;;;;;;;;;;;;;;;25.66;44.63;100718.00;5361976;32;44599;-77
2022/07/03 00:23:10;;;;;;;;;;;;;;;25.87;44.28;100715.94;5364603;32;35314;-71
2022/07/03 00:26:15;;;;;;;;;;;;;;;26.11;43.52;100715.34;5360491;32;34727;-70
2022/07/03 00:29:17;;;;;;;;;;;;;;;26.17;43.29;100725.53;5370111;32;34312;-71
2022/07/03 00:32:19;;;;;;;;;;;;;;;26.46;42.74;100716.38;5369056;32;35257;-71
2022/07/03 00:35:21;;;;;;;;;;;;;;;25.98;43.74;100712.19;5348289;32;35765;-77
2022/07/03 00:38:23;;;;;;;;;;;;;;;26.20;43.29;100714.44;5378296;32;34596;-78
2022/07/03 00:41:26;;;;;;;;;;;;;;;25.45;45.12;100718.25;5361768;32;34732;-71
2022/07/03 00:44:28;;;;;;;;;;;;;;;24.46;48.02;100716.84;5378030;32;34850;-76
2022/07/03 00:47:30;;;;;;;;;;;;;;;24.48;48.07;100701.47;5363707;32;35005;-77
2022/07/03 00:50:35;;;;;;;;;;;;;;;24.74;47.37;100696.34;5369608;32;34616;-71
2022/07/03 00:53:38;;;;;;;;;;;;;;;25.73;44.87;100710.22;5373434;32;45060;-71
2022/07/03 00:56:40;;;;;;;;;;;;;;;25.33;45.78;100705.97;5362127;32;34810;-77
2022/07/03 00:59:42;;;;;;;;;;;;;;;25.25;45.99;100709.41;5379214;32;35001;-78
2022/07/03 01:02:44;;;;;;;;;;;;;;;25.01;46.95;100706.31;5364538;32;34637;-71
2022/07/03 01:05:50;;;;;;;;;;;;;;;24.83;47.56;100715.13;5372582;32;36974;-71
2022/07/03 01:08:53;;;;;;;;;;;;;;;24.40;48.37;100706.66;5363304;32;35263;-79
2022/07/03 01:11:58;;;;;;;;;;;;;;;24.52;47.76;100709.06;5364227;32;34763;-71
2022/07/03 01:15:23;;;;;;;;;;;;;;;24.19;49.21;100707.63;5351723;32;35368;-77
2022/07/03 01:18:44;;;;;;;;;;;;;;;24.64;47.54;100707.09;5352316;32;35061;-71
2022/07/03 01:22:16;;;;;;;;;;;;;;;24.53;47.56;100707.22;5379969;32;35560;-77
2022/07/03 01:25:25;;;;;;;;;;;;;;;24.71;47.27;100702.84;5364842;32;35507;-75
2022/07/03 01:28:27;;;;;;;;;;;;;;;24.51;47.78;100696.62;5361736;32;35313;-70
2022/07/03 01:31:29;;;;;;;;;;;;;;;24.91;46.86;100681.28;5377204;32;34075;-77
2022/07/03 01:34:33;;;;;;;;;;;;;;;24.67;47.43;100693.38;5359940;32;34739;-77
2022/07/03 01:37:35;;;;;;;;;;;;;;;24.54;47.66;100695.50;5377047;32;34169;-71
2022/07/03 01:40:38;;;;;;;;;;;;;;;24.02;49.27;100694.87;5360527;32;43702;-79
2022/07/03 01:43:47;;;;;;;;;;;;;;;24.15;48.38;100695.47;5366081;32;34889;-77
2022/07/03 01:46:49;;;;;;;;;;;;;;;24.04;48.79;100696.44;5377545;32;37550;-71
2022/07/03 01:49:51;;;;;;;;;;;;;;;23.78;49.59;100684.53;5360172;32;34306;-79
2022/07/03 01:52:53;;;;;;;;;;;;;;;23.87;49.61;100696.25;5379305;32;34711;-76
2022/07/03 01:55:57;;;;;;;;;;;;;;;24.08;48.93;100675.50;5357237;32;35206;-70
2022/07/03 01:58:59;;;;;;;;;;;;;;;24.13;49.01;100692.06;5373692;32;35011;-76
2022/07/03 02:02:01;;;;;;;;;;;;;;;24.21;48.80;100685.97;5366086;32;35942;-70
2022/07/03 02:05:07;;;;;;;;;;;;;;;24.23;48.55;100689.41;5363188;32;35133;-77
2022/07/03 02:08:31;;;;;;;;;;;;;;;24.04;48.72;100695.59;5374803;32;47269;-77
2022/07/03 02:11:35;;;;;;;;;;;;;;;23.78;50.12;100701.47;5361967;32;34361;-71
2022/07/03 02:14:37;;;;;;;;;;;;;;;24.52;47.87;100690.25;5356450;32;34617;-77
2022/07/03 02:17:42;;;;;;;;;;;;;;;25.12;46.25;100687.38;5349758;32;35586;-78
2022/07/03 02:20:46;;;;;;;;;;;;;;;25.34;45.67;100678.06;5369065;32;35003;-80
2022/07/03 02:23:53;;;;;;;;;;;;;;;25.46;45.66;100662.59;5372717;32;35717;-72
2022/07/03 02:27:05;;;;;;;;;;;;;;;25.48;46.04;100676.72;5357560;32;34452;-77
2022/07/03 02:30:07;;;;;;;;;;;;;;;25.08;46.94;100678.72;5374298;32;42889;-71
2022/07/03 02:33:09;;;;;;;;;;;;;;;25.08;46.97;100686.81;5362476;32;35496;-76
2022/07/03 02:36:11;;;;;;;;;;;;;;;25.02;47.31;100681.13;5372623;32;34849;-70
2022/07/03 02:39:14;;;;;;;;;;;;;;;23.60;51.27;100686.97;5361665;32;34168;-70
2022/07/03 02:42:37;;;;;;;;;;;;;;;24.26;49.41;100679.22;5357180;32;35750;-71
2022/07/03 02:45:40;;;;;;;;;;;;;;;24.98;47.32;100674.34;5357345;32;43272;-76
2022/07/03 02:48:42;;;;;;;;;;;;;;;23.93;50.18;100693.03;5357160;32;34939;-70
2022/07/03 02:51:46;;;;;;;;;;;;;;;23.73;50.65;100698.34;5371954;32;35967;-71
2022/07/03 02:54:48;;;;;;;;;;;;;;;23.54;50.77;100697.41;5359610;32;36589;-71
2022/07/03 02:58:10;;;;;;;;;;;;;;;24.23;49.25;100690.25;5363238;32;34755;-71
2022/07/03 03:01:31;;;;;;;;;;;;;;;23.62;50.57;100701.13;5374800;32;45764;-76
2022/07/03 03:04:33;;;;;;;;;;;;;;;24.13;49.25;100699.28;5362269;32;34738;-81
2022/07/03 03:07:41;;;;;;;;;;;;;;;23.70;49.61;100700.44;5374968;32;34250;-71
2022/07/03 03:10:43;;;;;;;;;;;;;;;22.82;52.27;100695.63;5353501;32;45632;-77
2022/07/03 03:13:46;;;;;;;;;;;;;;;22.70;52.70;100702.88;5366251;32;35416;-78
2022/07/03 03:16:50;;;;;;;;;;;;;;;23.12;51.58;100698.37;5342141;32;34189;-78
2022/07/03 03:19:52;;;;;;;;;;;;;;;22.66;53.26;100704.94;5362050;32;35114;-77
2022/07/03 03:23:14;;;;;;;;;;;;;;;22.80;53.23;100701.13;5382217;32;34660;-77
2022/07/03 03:26:20;;;;;;;;;;;;;;;22.69;53.46;100710.06;5362894;32;43467;-77
2022/07/03 03:29:22;;;;;;;;;;;;;;;24.15;49.40;100718.75;5374579;32;34364;-70
2022/07/03 03:32:24;;;;;;;;;;;;;;;23.97;49.79;100721.31;5366704;32;35393;-78
2022/07/03 03:35:26;;;;;;;;;;;;;;;22.88;53.20;100705.84;5362400;32;35964;-70
2022/07/03 03:38:29;;;;;;;;;;;;;;;22.45;54.92;100712.09;5378963;32;35441;-70
2022/07/03 03:41:31;;;;;;;;;;;;;;;22.67;54.72;100701.31;5359663;32;36134;-71
2022/07/03 03:44:32;;;;;;;;;;;;;;;22.80;54.47;100697.56;5375998;32;35763;-70
2022/07/03 03:47:34;;;;;;;;;;;;;;;22.83;54.59;100705.34;5363853;32;36340;-71
2022/07/03 03:50:36;;;;;;;;;;;;;;;22.88;54.56;100700.47;5370825;32;34086;-75
2022/07/03 03:53:38;;;;;;;;;;;;;;;22.86;54.66;100697.03;5367711;32;45358;-77
2022/07/03 03:56:40;;;;;;;;;;;;;;;22.49;55.75;100693.97;5359174;32;34802;-70
2022/07/03 03:59:42;;;;;;;;;;;;;;;22.81;54.63;100684.03;5378743;32;34317;-82
2022/07/03 04:02:44;;;;;;;;;;;;;;;22.82;55.21;100687.56;5366407;32;34515;-71
2022/07/03 04:05:46;;;;;;;;;;;;;;;23.28;53.42;100687.16;5373943;32;36330;-76
2022/07/03 04:08:48;;;;;;;;;;;;;;;23.13;53.94;100689.34;5362216;32;34595;-71
2022/07/03 04:11:50;;;;;;;;;;;;;;;23.76;51.64;100703.47;5370232;32;36203;-70
2022/07/03 04:14:52;;;;;;;;;;;;;;;23.77;51.93;100705.16;5345498;32;36715;-79
2022/07/03 04:17:53;;;;;;;;;;;;;;;24.36;50.15;100703.44;5350438;32;35356;-78
2022/07/03 04:20:55;;;;;;;;;;;;;;;23.17;53.55;100709.53;5383640;32;34829;-71
2022/07/03 04:23:57;;;;;;;;;;;;;;;23.31;53.05;100707.47;5362868;32;35184;-79
2022/07/03 04:26:59;;;;;;;;;;;;;;;23.46;52.85;100709.66;5377268;32;34944;-71
2022/07/03 04:30:01;;;;;;;;;;;;;;;24.71;49.41;100705.53;5361484;32;36105;-77
2022/07/03 04:33:03;;;;;;;;;;;;;;;24.92;47.96;100712.56;5372881;32;34934;-71
2022/07/03 04:36:05;;;;;;;;;;;;;;;25.11;47.27;100701.78;5366992;32;36286;-77
2022/07/03 04:39:07;;;;;;;;;;;;;;;25.24;46.85;100688.84;5361538;32;46985;-71
2022/07/03 04:42:09;;;;;;;;;;;;;;;25.88;45.60;100690.69;5376168;32;34827;-77
2022/07/03 04:45:11;;;;;;;;;;;;;;;26.21;44.56;100691.03;5362638;32;34600;-76
2022/07/03 04:48:13;;;;;;;;;;;;;;;26.73;43.47;100685.81;5375794;32;34866;-80
2022/07/03 04:51:15;;;;;;;;;;;;;;;26.64;43.28;100692.97;5361154;32;35168;-77
2022/07/03 04:54:17;;;;;;;;;;;;;;;25.97;44.83;100682.72;5371838;32;34718;-72
2022/07/03 04:57:19;;;;;;;;;;;;;;;26.88;43.06;100681.53;5369924;32;35370;-70
2022/07/03 05:00:20;;;;;;;;;;;;;;;26.19;44.68;100671.47;5345599;32;34847;-71
2022/07/03 05:03:22;;;;;;;;;;;;;;;27.19;42.66;100681.91;5378149;32;35483;-81
2022/07/03 05:06:24;;;;;;;;;;;;;;;26.52;43.86;100680.72;5362198;32;34789;-80
2022/07/03 05:09:26;;;;;;;;;;;;;;;27.00;42.81;100677.56;5376722;32;34552;-77
2022/07/03 05:12:28;;;;;;;;;;;;;;;27.30;42.04;100682.62;5364481;32;35860;-79
2022/07/03 05:15:30;;;;;;;;;;;;;;;27.44;41.69;100672.09;5339639;32;35564;-78
2022/07/03 05:18:32;;;;;;;;;;;;;;;27.52;41.59;100669.41;5368180;32;35011;-78
2022/07/03 05:21:34;;;;;;;;;;;;;;;27.16;42.49;100670.59;5366948;32;34334;-77
2022/07/03 05:24:37;;;;;;;;;;;;;;;28.53;39.30;100669.31;5378239;32;34367;-71
2022/07/03 05:27:39;;;;;;;;;;;;;;;28.53;39.05;100665.75;5361699;32;44244;-77
2022/07/03 05:30:41;;;;;;;;;;;;;;;28.94;38.17;100657.63;5374213;32;34365;-71
2022/07/03 05:33:43;;;;;;;;;;;;;;;28.20;39.65;100667.56;5361171;32;35134;-72
2022/07/03 05:36:45;;;;;;;;;;;;;;;27.92;40.53;100664.31;5366081;32;35560;-72
2022/07/03 05:39:47;;;;;;;;;;;;;;;30.88;34.79;100648.53;5371795;32;36700;-72
2022/07/03 05:42:49;;;;;;;;;;;;;;;29.46;37.15;100657.97;5359531;32;35919;-71
2022/07/03 05:45:51;;;;;;;;;;;;;;;28.64;38.97;100661.88;5373867;32;35533;-70
2022/07/03 05:48:53;;;;;;;;;;;;;;;29.51;37.08;100660.16;5360384;32;34799;-78
2022/07/03 05:51:55;;;;;;;;;;;;;;;29.87;36.73;100666.72;5375576;32;34786;-80
2022/07/03 05:54:57;;;;;;;;;;;;;;;29.57;37.21;100662.19;5360931;32;36593;-78
2022/07/03 05:57:59;;;;;;;;;;;;;;;28.66;38.87;100670.63;5368309;32;34716;-78
2022/07/03 06:01:01;;;;;;;;;;;;;;;32.31;32.26;100668.72;5368295;32;34928;-71
2022/07/03 06:04:03;;;;;;;;;;;;;;;32.42;31.53;100663.84;5364150;32;35137;-71
2022/07/03 06:07:05;;;;;;;;;;;;;;;32.65;31.18;100653.53;5376484;32;35096;-72
2022/07/03 06:10:07;;;;;;;;;;;;;;;31.32;33.66;100670.28;5357144;32;43986;-78
2022/07/03 06:13:09;;;;;;;;;;;;;;;30.17;35.84;100673.19;5374057;32;34990;-78
2022/07/03 06:16:11;;;;;;;;;;;;;;;29.60;36.93;100668.06;5334551;32;34217;-71
2022/07/03 06:19:13;;;;;;;;;;;;;;;30.04;36.04;100672.06;5359316;32;34818;-82
2022/07/03 06:22:15;;;;;;;;;;;;;;;30.79;34.82;100665.94;5375220;32;36149;-71
2022/07/03 06:25:17;;;;;;;;;;;;;;;32.73;30.96;100668.91;5357898;32;33950;-79
2022/07/03 06:28:19;;;;;;;;;;;;;;;30.91;34.38;100678.00;5376347;32;35603;-79
2022/07/03 06:31:21;;;;;;;;;;;;;;;33.04;30.76;100666.66;5359672;32;35003;-79
2022/07/03 06:34:23;;;;;;;;;;;;;;;33.64;29.57;100675.97;5376994;32;34635;-78
2022/07/03 06:37:25;;;;;;;;;;;;;;;33.40;29.71;100674.63;5363731;32;35966;-72
2022/07/03 06:40:27;;;;;;;;;;;;;;;32.83;30.91;100670.22;5363370;32;35960;-72
2022/07/03 06:43:29;;;;;;;;;;;;;;;31.54;33.15;100672.03;5372476;32;36486;-79
2022/07/03 06:46:31;;;;;;;;;;;;;;;30.91;33.99;100670.69;5362948;32;34828;-70
2022/07/03 06:49:34;;;;;;;;;;;;;;;31.18;33.58;100662.97;5376300;32;35204;-78
2022/07/03 06:52:36;;;;;;;;;;;;;;;33.39;30.23;100659.31;5365978;32;35463;-80
2022/07/03 06:55:37;;;;;;;;;;;;;;;34.67;27.85;100646.63;5374823;32;46410;-78
2022/07/03 06:58:39;;;;;;;;;;;;;;;33.74;29.07;100656.50;5362397;32;34699;-71
2022/07/03 07:01:44;;;;;;;;;;;;;;;31.72;32.69;100663.47;5364927;32;35274;-72
2022/07/03 07:04:46;;;;;;;;;;;;;;;32.89;30.94;100646.84;5373528;32;35070;-82
2022/07/03 07:07:49;;;;;;;;;;;;;;;33.19;30.24;100650.19;5360185;32;34229;-78
2022/07/03 07:10:51;;;;;;;;;;;;;;;35.00;27.39;100640.28;5374889;32;34963;-78
2022/07/03 07:13:53;;;;;;;;;;;;;;;36.31;25.47;100637.97;5354567;32;35509;-79
2022/07/03 07:16:58;;;;;;;;;;;;;;;35.62;26.44;100637.97;5349311;32;35045;-71
2022/07/03 07:20:00;;;;;;;;;;;;;;;33.38;29.42;100637.69;5362138;32;32601;-72
2022/07/03 07:23:02;;;;;;;;;;;;;;;33.53;29.13;100643.03;5368099;32;36529;-79
2022/07/03 07:26:04;;;;;;;;;;;;;;;35.73;26.21;100640.84;5374279;32;34701;-79
2022/07/03 07:29:06;;;;;;;;;;;;;;;33.99;28.72;100639.63;5363205;32;34708;-71
2022/07/03 07:32:08;;;;;;;;;;;;;;;33.22;30.19;100633.41;5375681;32;44598;-79
2022/07/03 07:35:10;;;;;;;;;;;;;;;32.69;30.81;100627.63;5362033;32;35339;-80
2022/07/03 07:38:12;;;;;;;;;;;;;;;33.48;29.92;100624.56;5374585;32;34787;-79
2022/07/03 07:41:14;;;;;;;;;;;;;;;34.40;28.29;100629.38;5364148;32;35523;-79
2022/07/03 07:44:16;;;;;;;;;;;;;;;33.97;29.16;100642.56;5362234;32;35114;-80
2022/07/03 07:47:20;;;;;;;;;;;;;;;34.64;28.29;100635.25;5378699;32;35089;-79
2022/07/03 07:50:22;;;;;;;;;;;;;;;34.66;27.71;100634.03;5360702;32;35030;-80
2022/07/03 07:53:24;;;;;;;;;;;;;;;36.20;25.69;100644.19;5375511;32;35093;-80
2022/07/03 07:56:26;;;;;;;;;;;;;;;37.27;23.91;100644.03;5363173;32;36518;-80
2022/07/03 07:59:28;;;;;;;;;;;;;;;35.32;26.71;100646.69;5375495;32;35070;-71
2022/07/03 08:05:51;;;;;;;;;;;;;;;38.22;22.76;100652.47;5361598;32;35445;-71
2022/07/03 08:08:53;;;;;;;;;;;;;;;35.86;26.00;100648.13;5378009;32;36302;-80
2022/07/03 08:11:55;;;;;;;;;;;;;;;37.98;23.15;100646.06;5361832;32;35578;-79
2022/07/03 08:14:57;;;;;;;;;;;;;;;36.93;24.40;100648.22;5351299;32;34902;-73
2022/07/03 08:17:59;;;;;;;;;;;;;;;36.41;25.36;100650.34;5355245;32;36140;-72
2022/07/03 08:21:01;;;;;;;;;;;;;;;36.35;25.46;100644.69;5374330;32;34501;-72
2022/07/03 08:24:03;;;;;;;;;;;;;;;37.72;23.28;100643.69;5368547;32;34302;-80
2022/07/03 08:27:05;;;;;;;;;;;;;;;37.61;23.66;100637.06;5362984;32;34618;-80
2022/07/03 08:30:07;;;;;;;;;;;;;;;35.13;27.07;100637.50;5375973;32;46625;-71
2022/07/03 08:33:09;;;;;;;;;;;;;;;35.89;25.81;100647.72;5361009;32;34928;-79
2022/07/03 08:36:11;;;;;;;;;;;;;;;35.77;26.34;100642.09;5376057;32;35818;-82
2022/07/03 08:39:13;;;;;;;;;;;;;;;37.06;24.29;100637.94;5361535;32;34233;-71
2022/07/03 08:42:15;;;;;;;;;;;;;;;38.89;22.13;100636.56;5367686;32;34793;-80
2022/07/03 08:45:19;;;;;;;;;;;;;;;36.97;24.50;100628.38;5370312;32;37126;-72
2022/07/03 08:48:22;;;;;;;;;;;;;;;37.46;23.76;100626.53;5361916;32;34968;-79
2022/07/03 08:51:24;;;;;;;;;;;;;;;37.87;23.27;100623.03;5377318;32;34034;-71
2022/07/03 08:54:26;;;;;;;;;;;;;;;36.97;24.66;100633.84;5362169;32;33933;-80
2022/07/03 08:57:30;;;;;;;;;;;;;;;39.48;21.73;100628.19;5375408;32;34321;-72
2022/07/03 09:00:32;;;;;;;;;;;;;;;38.12;23.13;100627.50;5361505;32;34755;-72
2022/07/03 09:03:33;;;;;;;;;;;;;;;36.70;24.95;100627.75;5368282;32;35308;-80
2022/07/03 09:06:35;;;;;;;;;;;;;;;39.30;21.47;100625.66;5375348;32;34657;-81
2022/07/03 09:09:38;;;;;;;;;;;;;;;40.01;20.34;100605.84;5359320;32;44378;-72
2022/07/03 09:12:39;;;;;;;;;;;;;;;38.73;21.67;100621.66;5376805;32;35855;-71
2022/07/03 09:15:41;;;;;;;;;;;;;;;38.73;21.84;100609.84;5332042;32;35156;-79
2022/07/03 09:18:44;;;;;;;;;;;;;;;39.35;21.08;100612.81;5371962;32;33593;-80
2022/07/03 09:21:48;;;;;;;;;;;;;;;35.06;27.06;100614.84;5370093;32;34972;-80
2022/07/03 09:24:51;;;;;;;;;;;;;;;36.24;25.40;100606.25;5363155;32;35696;-72
2022/07/03 09:27:53;;;;;;;;;;;;;;;38.67;22.12;100608.00;5372761;32;35309;-71
2022/07/03 09:30:55;;;;;;;;;;;;;;;37.82;23.28;100609.19;5361972;32;35583;-71
2022/07/03 09:34:01;;;;;;;;;;;;;;;37.01;24.29;100599.44;5375412;32;34675;-80
2022/07/03 09:37:03;;;;;;;;;;;;;;;38.35;22.61;100597.38;5363492;32;34888;-82
2022/07/03 09:40:06;;;;;;;;;;;;;;;40.55;20.24;100583.34;5374071;32;35202;-72
2022/07/03 09:43:08;;;;;;;;;;;;;;;41.26;18.90;100589.84;5363343;32;44238;-79
2022/07/03 09:46:10;;;;;;;;;;;;;;;39.37;20.95;100582.34;5360421;32;36010;-73
2022/07/03 09:49:12;;;;;;;;;;;;;;;37.62;23.09;100576.53;5377402;32;34680;-83
2022/07/03 09:52:29;;;;;;;;;;;;;;;38.57;21.96;100575.66;5360787;32;35311;-72
2022/07/03 09:55:31;;;;;;;;;;;;;;;40.44;19.60;100570.47;5376355;32;36801;-81
2022/07/03 09:58:33;;;;;;;;;;;;;;;37.00;23.39;100572.28;5363297;32;35203;-79
2022/07/03 10:01:36;;;;;;;;;;;;;;;39.01;21.13;100573.34;5371194;32;34658;-71
2022/07/03 10:04:38;;;;;;;;;;;;;;;39.14;20.90;100564.81;5369734;32;45478;-72
2022/07/03 10:07:57;;;;;;;;;;;;;;;37.12;23.17;100567.72;5355930;32;35229;-72
2022/07/03 10:10:59;;;;;;;;;;;;;;;39.92;19.99;100563.31;5375302;32;35482;-79
2022/07/03 10:14:01;;;;;;;;;;;;;;;38.17;22.19;100562.59;5353482;32;34837;-81
2022/07/03 10:17:03;;;;;;;;;;;;;;;39.65;20.38;100557.59;5347148;32;34257;-81
2022/07/03 10:20:05;;;;;;;;;;;;;;;41.87;17.57;100551.06;5364394;32;35223;-80
2022/07/03 10:23:07;;;;;;;;;;;;;;;38.63;21.47;100558.22;5368849;32;35599;-79
2022/07/03 10:26:09;;;;;;;;;;;;;;;38.12;22.37;100546.00;5376792;32;35256;-81
2022/07/03 10:29:15;;;;;;;;;;;;;;;38.58;21.39;100544.38;5363198;32;35304;-72
2022/07/03 10:32:20;;;;;;;;;;;;;;;39.20;20.41;100538.31;5377397;32;36120;-71
2022/07/03 10:35:26;;;;;;;;;;;;;;;41.90;17.18;100528.44;5361499;32;34916;-81
2022/07/03 10:38:34;;;;;;;;;;;;;;;42.62;16.29;100527.88;5374985;32;35380;-71
2022/07/03 10:45:07;;;;;;;;;;;;;;;40.10;18.86;100522.91;5362182;32;35558;-79
2022/07/03 10:48:09;;;;;;;;;;;;;;;40.88;17.66;100513.53;5376741;32;44882;-79
2022/07/03 10:51:11;;;;;;;;;;;;;;;43.09;15.35;100512.31;5362247;32;35514;-71
2022/07/03 10:54:14;;;;;;;;;;;;;;;40.59;17.92;100507.41;5375373;32;34426;-72
2022/07/03 10:57:17;;;;;;;;;;;;;;;39.80;18.83;100510.28;5363036;32;34401;-72
2022/07/03 11:00:20;;;;;;;;;;;;;;;43.69;14.40;100488.66;5363764;32;36489;-80
2022/07/03 11:03:40;;;;;;;;;;;;;;;43.28;14.45;100499.62;5382775;32;35236;-80
2022/07/03 11:06:42;;;;;;;;;;;;;;;41.19;16.06;100498.22;5360149;32;44019;-72
2022/07/03 11:09:44;;;;;;;;;;;;;;;43.32;14.67;100489.69;5377688;32;34677;-72
2022/07/03 11:12:56;;;;;;;;;;;;;;;40.26;17.34;100497.28;5362145;32;34987;-80
2022/07/03 11:15:59;;;;;;;;;;;;;;;42.73;15.11;100470.72;5334418;32;35341;-72
2022/07/03 11:19:00;;;;;;;;;;;;;;;42.31;15.27;100479.06;5370693;32;35290;-82
2022/07/03 11:22:04;;;;;;;;;;;;;;;41.45;16.08;100471.75;5367517;32;35451;-74
2022/07/03 11:25:07;;;;;;;;;;;;;;;41.91;15.92;100481.25;5375366;32;34183;-81
2022/07/03 11:28:27;;;;;;;;;;;;;;;45.49;12.52;100471.97;5361627;32;46933;-81
2022/07/03 11:31:33;;;;;;;;;;;;;;;44.61;13.10;100469.94;5375972;32;34676;-71
2022/07/03 11:34:42;;;;;;;;;;;;;;;38.92;18.67;100471.25;5363262;32;34224;-71
2022/07/03 11:37:45;;;;;;;;;;;;;;;39.35;17.85;100475.34;5361562;32;44511;-72
2022/07/03 11:40:47;;;;;;;;;;;;;;;38.92;18.43;100464.91;5375219;32;35361;-71
2022/07/03 11:43:50;;;;;;;;;;;;;;;40.69;16.95;100451.59;5360796;32;35109;-72
2022/07/03 11:46:52;;;;;;;;;;;;;;;44.48;13.54;100445.59;5369902;32;35363;-73
2022/07/03 11:49:54;;;;;;;;;;;;;;;43.21;14.48;100441.00;5361541;32;35481;-81
2022/07/03 11:52:56;;;;;;;;;;;;;;;44.99;13.07;100437.06;5373415;32;36723;-80
2022/07/03 11:55:59;;;;;;;;;;;;;;;40.34;17.03;100430.75;5368640;32;34781;-82
2022/07/03 11:59:02;;;;;;;;;;;;;;;40.59;17.09;100430.28;5361879;32;34596;-72
2022/07/03 12:02:04;;;;;;;;;;;;;;;40.92;16.90;100439.50;5376832;32;35646;-80
2022/07/03 12:05:15;;;;;;;;;;;;;;;43.78;14.13;100431.62;5367845;32;34867;-72
2022/07/03 12:08:28;;;;;;;;;;;;;;;41.83;15.79;100426.56;5373179;32;34710;-72
2022/07/03 12:11:30;;;;;;;;;;;;;;;39.03;18.79;100421.97;5362680;32;36188;-72
2022/07/03 12:14:41;;;;;;;;;;;;;;;40.25;17.71;100413.00;5346554;32;32432;-71
2022/07/03 12:17:44;;;;;;;;;;;;;;;38.50;19.76;100421.19;5361526;32;44731;-72
2022/07/03 12:20:46;;;;;;;;;;;;;;;36.41;22.43;100413.09;5366706;32;35345;-80
2022/07/03 12:23:54;;;;;;;;;;;;;;;37.49;21.19;100406.78;5376049;32;34487;-78
2022/07/03 12:26:56;;;;;;;;;;;;;;;38.91;19.35;100405.56;5363183;32;34221;-79
2022/07/03 12:29:58;;;;;;;;;;;;;;;37.73;20.95;100402.13;5372729;32;34883;-72
2022/07/03 12:33:00;;;;;;;;;;;;;;;38.90;19.34;100387.38;5364543;32;34713;-80
2022/07/03 12:36:06;;;;;;;;;;;;;;;36.54;22.40;100391.03;5361384;32;36119;-83
2022/07/03 12:39:08;;;;;;;;;;;;;;;37.36;20.47;100394.13;5375325;32;42908;-79
2022/07/03 12:42:17;;;;;;;;;;;;;;;37.36;20.62;100388.63;5361783;32;34392;-73
2022/07/03 12:45:19;;;;;;;;;;;;;;;37.45;20.51;100382.81;5374247;32;35490;-73
2022/07/03 12:48:21;;;;;;;;;;;;;;;38.19;19.87;100393.06;5360748;32;35400;-72
2022/07/03 12:51:47;;;;;;;;;;;;;;;35.94;22.29;100388.12;5369822;32;35468;-73
2022/07/03 12:54:49;;;;;;;;;;;;;;;36.14;21.84;100385.19;5357066;32;35782;-81
2022/07/03 13:01:36;;;;;;;;;;;;;;;35.88;21.09;100377.22;5375396;32;36313;-72
2022/07/03 13:04:39;;;;;;;;;;;;;;;36.44;20.71;100381.69;5369208;32;44604;-73
2022/07/03 13:07:42;;;;;;;;;;;;;;;36.60;20.77;100373.69;5360110;32;35284;-78
2022/07/03 13:10:44;;;;;;;;;;;;;;;37.37;19.70;100381.25;5377258;32;35425;-74
2022/07/03 13:13:47;;;;;;;;;;;;;;;36.68;19.92;100374.44;5355414;32;34765;-71
2022/07/03 13:16:50;;;;;;;;;;;;;;;36.16;20.47;100369.37;5345666;32;34929;-80
2022/07/03 13:19:52;;;;;;;;;;;;;;;36.81;19.70;100366.03;5364210;32;35908;-80
2022/07/03 13:22:55;;;;;;;;;;;;;;;36.68;19.81;100371.69;5379667;32;34873;-80
2022/07/03 13:25:57;;;;;;;;;;;;;;;36.75;19.37;100369.69;5365836;32;35357;-79
2022/07/03 13:28:59;;;;;;;;;;;;;;;36.76;19.38;100353.03;5361563;32;35424;-73
2022/07/03 13:32:01;;;;;;;;;;;;;;;35.48;21.17;100361.19;5378805;32;35029;-79
2022/07/03 13:35:04;;;;;;;;;;;;;;;36.26;20.39;100358.72;5361581;32;34386;-71
2022/07/03 13:38:06;;;;;;;;;;;;;;;36.18;20.79;100353.53;5358027;32;33770;-71
2022/07/03 13:41:08;;;;;;;;;;;;;;;35.06;22.30;100347.19;5360490;32;44616;-79
2022/07/03 13:44:10;;;;;;;;;;;;;;;36.44;20.59;100352.41;5372651;32;35055;-72
2022/07/03 13:47:12;;;;;;;;;;;;;;;36.62;19.99;100332.37;5364589;32;35350;-80
2022/07/03 13:50:14;;;;;;;;;;;;;;;36.05;21.01;100346.31;5361955;32;35594;-71
2022/07/03 13:53:16;;;;;;;;;;;;;;;36.64;20.57;100346.66;5376686;32;34255;-72
2022/07/03 13:56:18;;;;;;;;;;;;;;;36.68;20.66;100342.41;5363120;32;34855;-73
2022/07/03 13:59:21;;;;;;;;;;;;;;;35.97;21.47;100343.91;5376094;32;34709;-80
2022/07/03 14:02:23;;;;;;;;;;;;;;;35.81;21.31;100344.50;5362795;32;35194;-73
2022/07/03 14:05:25;;;;;;;;;;;;;;;35.65;21.27;100345.87;5372200;32;34881;-71
2022/07/03 14:08:27;;;;;;;;;;;;;;;35.88;20.90;100345.25;5364135;32;34719;-71
2022/07/03 14:11:29;;;;;;;;;;;;;;;36.07;21.03;100344.22;5362855;32;35311;-79
2022/07/03 14:14:31;;;;;;;;;;;;;;;35.99;21.28;100333.56;5359733;32;34342;-80
2022/07/03 14:17:35;;;;;;;;;;;;;;;35.61;21.90;100344.66;5336406;32;34887;-81
2022/07/03 14:20:37;;;;;;;;;;;;;;;36.19;21.12;100338.78;5377901;32;33004;-79
2022/07/03 14:23:39;;;;;;;;;;;;;;;36.88;20.37;100337.50;5360665;32;34628;-79
2022/07/03 14:33:23;;;;;;;;;;;;;;;35.63;21.97;100337.09;5357519;32;34763;-81
2022/07/03 14:36:24;;;;;;;;;;;;;;;35.96;21.57;100344.97;5374698;32;34922;-72
2022/07/03 14:39:47;;;;;;;;;;;;;;;34.72;23.31;100334.81;5359250;32;37765;-83
2022/07/03 14:42:49;;;;;;;;;;;;;;;34.83;23.31;100334.09;5364202;32;35836;-82
2022/07/03 14:45:51;;;;;;;;;;;;;;;35.36;21.03;100336.47;5371947;32;35181;-70
2022/07/03 14:48:53;;;;;;;;;;;;;;;34.78;21.35;100331.19;5345775;32;35345;-78
2022/07/03 14:51:55;;;;;;;;;;;;;;;35.32;20.76;100331.66;5375875;32;34567;-79
2022/07/03 14:54:57;;;;;;;;;;;;;;;36.17;19.27;100327.25;5361073;32;35362;-71
2022/07/03 14:58:02;;;;;;;;;;;;;;;36.26;19.80;100334.09;5373527;32;36150;-71
2022/07/03 15:01:04;;;;;;;;;;;;;;;35.93;21.48;100334.47;5361253;32;34287;-80
2022/07/03 15:04:09;;;;;;;;;;;;;;;35.32;22.44;100328.94;5361479;32;35188;-71
2022/07/03 15:07:12;;;;;;;;;;;;;;;36.22;21.69;100329.31;5376010;32;44715;-79
2022/07/03 15:10:17;;;;;;;;;;;;;;;35.42;22.86;100324.66;5362359;32;34632;-79
2022/07/03 15:13:20;;;;;;;;;;;;;;;35.10;23.26;100320.28;5374318;32;34327;-78
2022/07/03 15:16:21;;;;;;;;;;;;;;;35.10;23.54;100314.81;5335861;32;35067;-79
2022/07/03 15:19:23;;;;;;;;;;;;;;;36.06;22.20;100326.13;5371945;32;34804;-79
2022/07/03 15:22:25;;;;;;;;;;;;;;;35.75;22.26;100320.78;5367951;32;34750;-79
2022/07/03 15:25:30;;;;;;;;;;;;;;;36.44;21.80;100321.47;5363817;32;34326;-80
2022/07/03 15:28:33;;;;;;;;;;;;;;;35.00;23.90;100323.50;5375534;32;34330;-71
2022/07/03 15:31:35;;;;;;;;;;;;;;;34.07;25.07;100323.97;5361106;32;33245;-71
2022/07/03 15:34:38;;;;;;;;;;;;;;;33.86;25.27;100308.66;5373873;32;45101;-71
2022/07/03 15:37:49;;;;;;;;;;;;;;;34.12;24.91;100312.38;5361134;32;34764;-81
2022/07/03 15:40:52;;;;;;;;;;;;;;;35.08;23.60;100322.41;5372805;32;34763;-79
2022/07/03 15:43:59;;;;;;;;;;;;;;;35.05;23.77;100317.41;5366613;32;35406;-72
2022/07/03 15:47:16;;;;;;;;;;;;;;;34.29;24.32;100319.03;5360695;32;35611;-71
2022/07/03 15:50:25;;;;;;;;;;;;;;;34.79;23.69;100300.12;5378066;32;34974;-72
2022/07/03 15:53:28;;;;;;;;;;;;;;;34.20;24.45;100309.44;5359999;32;35562;-71
2022/07/03 15:56:31;;;;;;;;;;;;;;;34.10;24.72;100311.78;5374626;32;35535;-80
2022/07/03 15:59:34;;;;;;;;;;;;;;;33.87;25.05;100314.94;5367806;32;35395;-80